createdAt,value
2018-12-26T00:00:43.035Z,5.58
2018-12-26T00:01:49.003Z,5.57
2018-12-26T00:02:54.928Z,5.60
2018-12-26T00:04:00.850Z,5.65
2018-12-26T00:05:06.420Z,5.63
2018-12-26T00:06:12.222Z,5.52
2018-12-26T00:07:18.207Z,5.56
2018-12-26T00:08:23.751Z,5.61
2018-12-26T00:09:29.657Z,5.53
2018-12-26T00:10:35.607Z,5.47
2018-12-26T00:11:41.560Z,5.37
2018-12-26T00:12:47.491Z,5.41
2018-12-26T00:13:53.383Z,5.46
2018-12-26T00:14:59.338Z,5.48
2018-12-26T00:16:05.318Z,5.56
2018-12-26T00:17:11.266Z,5.59
2018-12-26T00:18:17.251Z,5.56
2018-12-26T00:19:23.428Z,5.61
2018-12-26T00:20:29.348Z,5.42
2018-12-26T00:21:35.422Z,5.34
2018-12-26T00:22:42.096Z,5.41
2018-12-26T00:23:47.981Z,5.40
2018-12-26T00:24:53.915Z,5.53
2018-12-26T00:26:01.762Z,5.51
2018-12-26T00:27:05.833Z,5.54
2018-12-26T00:28:11.795Z,5.42
2018-12-26T00:29:17.712Z,5.47
2018-12-26T00:30:23.645Z,5.43
2018-12-26T00:31:29.585Z,5.52
2018-12-26T00:32:35.524Z,5.55
2018-12-26T00:33:41.497Z,5.42
2018-12-26T00:34:47.430Z,5.36
2018-12-26T00:35:53.352Z,5.55
2018-12-26T00:36:59.303Z,5.64
2018-12-26T00:38:05.292Z,5.60
2018-12-26T00:39:11.253Z,5.31
2018-12-26T00:40:17.215Z,5.43
2018-12-26T00:41:23.181Z,5.60
2018-12-26T00:42:29.140Z,5.60
2018-12-26T00:43:35.139Z,5.57
2018-12-26T00:44:41.055Z,5.44
2018-12-26T00:45:47.008Z,5.43
2018-12-26T00:46:52.962Z,5.43
2018-12-26T00:47:58.958Z,5.50
2018-12-26T00:49:04.903Z,5.38
2018-12-26T00:50:10.889Z,5.41
2018-12-26T00:51:16.827Z,5.36
2018-12-26T00:52:22.869Z,5.54
2018-12-26T00:53:28.810Z,5.55
2018-12-26T00:54:34.794Z,5.54
2018-12-26T00:55:40.742Z,5.55
2018-12-26T00:56:46.671Z,5.57
2018-12-26T00:57:52.607Z,5.45
2018-12-26T00:58:58.562Z,5.48
2018-12-26T01:00:03.879Z,5.35
2018-12-26T01:01:09.590Z,5.36
2018-12-26T01:02:15.501Z,5.53
2018-12-26T01:03:21.494Z,5.37
2018-12-26T01:04:27.465Z,5.29
2018-12-26T01:05:33.417Z,5.43
2018-12-26T01:06:39.384Z,5.29
2018-12-26T01:07:45.363Z,5.30
2018-12-26T01:08:51.290Z,5.29
2018-12-26T01:09:57.223Z,5.48
2018-12-26T01:11:03.216Z,5.43
2018-12-26T01:12:09.183Z,5.29
2018-12-26T01:13:15.155Z,5.35
2018-12-26T01:14:21.089Z,5.21
2018-12-26T01:15:27.039Z,5.39
2018-12-26T01:16:33.028Z,5.38
2018-12-26T01:17:39.129Z,5.37
2018-12-26T01:18:45.128Z,5.24
2018-12-26T01:19:51.109Z,5.23
2018-12-26T01:20:57.056Z,5.48
2018-12-26T01:22:03.016Z,5.43
2018-12-26T01:23:08.928Z,5.21
2018-12-26T01:24:14.830Z,5.35
2018-12-26T01:25:21.347Z,5.31
2018-12-26T01:26:27.455Z,5.27
2018-12-26T01:27:33.428Z,5.21
2018-12-26T01:28:39.561Z,5.31
2018-12-26T01:29:45.462Z,5.38
2018-12-26T01:30:51.423Z,5.44
2018-12-26T01:31:57.369Z,5.38
2018-12-26T01:33:03.341Z,5.47
2018-12-26T01:34:09.285Z,5.45
2018-12-26T01:35:15.231Z,5.38
2018-12-26T01:36:21.173Z,5.32
2018-12-26T01:37:27.121Z,5.17
2018-12-26T01:38:33.065Z,5.24
2018-12-26T01:39:38.969Z,5.21
2018-12-26T01:40:44.948Z,5.22
2018-12-26T01:41:50.900Z,5.32
2018-12-26T01:42:56.879Z,5.41
2018-12-26T01:44:03.844Z,5.30
2018-12-26T01:45:09.843Z,5.26
2018-12-26T01:46:15.792Z,5.25
2018-12-26T01:47:21.702Z,5.16
2018-12-26T01:48:27.747Z,5.10
2018-12-26T01:49:33.641Z,5.16
2018-12-26T01:50:39.585Z,5.10
2018-12-26T01:51:45.521Z,5.06
2018-12-26T01:52:51.506Z,5.25
2018-12-26T01:53:57.473Z,5.12
2018-12-26T01:55:03.151Z,5.14
2018-12-26T01:56:09.078Z,5.17
2018-12-26T01:57:15.025Z,5.27
2018-12-26T01:58:20.720Z,5.36
2018-12-26T01:59:26.627Z,5.25
2018-12-26T02:00:32.573Z,5.27
2018-12-26T02:01:37.470Z,5.24
2018-12-26T02:02:42.394Z,5.18
2018-12-26T02:03:48.214Z,5.18
2018-12-26T02:04:54.212Z,5.19
2018-12-26T02:06:00.185Z,5.26
2018-12-26T02:07:06.124Z,5.25
2018-12-26T02:08:12.075Z,5.25
2018-12-26T02:09:18.063Z,5.17
2018-12-26T02:10:23.967Z,5.12
2018-12-26T02:11:29.895Z,5.11
2018-12-26T02:12:35.882Z,5.10
2018-12-26T02:13:41.838Z,5.16
2018-12-26T02:14:47.821Z,5.14
2018-12-26T02:15:53.801Z,5.27
2018-12-26T02:16:59.725Z,5.30
2018-12-26T02:18:05.689Z,5.35
2018-12-26T02:19:11.652Z,5.22
2018-12-26T02:20:17.238Z,5.18
2018-12-26T02:21:22.520Z,5.07
2018-12-26T02:22:28.512Z,5.15
2018-12-26T02:23:34.485Z,5.15
2018-12-26T02:24:40.469Z,5.12
2018-12-26T02:25:46.508Z,5.23
2018-12-26T02:26:52.476Z,5.17
2018-12-26T02:27:58.392Z,5.25
2018-12-26T02:29:04.016Z,5.05
2018-12-26T02:30:09.384Z,5.20
2018-12-26T02:31:15.348Z,5.18
2018-12-26T02:32:21.240Z,5.16
2018-12-26T02:33:27.194Z,5.07
2018-12-26T02:34:33.097Z,5.00
2018-12-26T02:35:39.206Z,5.01
2018-12-26T02:36:45.135Z,4.92
2018-12-26T02:37:51.038Z,5.01
2018-12-26T02:38:56.975Z,4.95
2018-12-26T02:40:02.846Z,4.88
2018-12-26T02:41:08.773Z,4.93
2018-12-26T02:42:14.726Z,5.12
2018-12-26T02:43:20.769Z,4.96
2018-12-26T02:44:26.705Z,5.15
2018-12-26T02:45:32.680Z,5.01
2018-12-26T02:46:38.646Z,4.99
2018-12-26T02:47:44.614Z,4.98
2018-12-26T02:48:50.547Z,5.00
2018-12-26T02:49:56.482Z,4.93
2018-12-26T02:51:02.077Z,5.03
2018-12-26T02:52:08.042Z,4.98
2018-12-26T02:53:14.026Z,4.99
2018-12-26T02:54:20.115Z,5.19
2018-12-26T02:55:25.996Z,5.05
2018-12-26T02:56:31.956Z,5.08
2018-12-26T02:57:37.860Z,5.22
2018-12-26T02:58:43.802Z,5.05
2018-12-26T02:59:49.697Z,5.01
2018-12-26T03:00:55.603Z,4.90
2018-12-26T03:02:01.555Z,4.91
2018-12-26T03:03:07.474Z,4.85
2018-12-26T03:04:13.396Z,5.00
2018-12-26T03:05:19.021Z,4.97
2018-12-26T03:06:24.949Z,4.92
2018-12-26T03:07:30.937Z,5.08
2018-12-26T03:08:36.927Z,5.07
2018-12-26T03:09:42.840Z,4.99
2018-12-26T03:10:48.807Z,4.95
2018-12-26T03:11:54.748Z,5.09
2018-12-26T03:13:00.681Z,5.17
2018-12-26T03:14:06.661Z,4.97
2018-12-26T03:15:13.069Z,4.99
2018-12-26T03:16:19.000Z,4.88
2018-12-26T03:17:24.922Z,4.78
2018-12-26T03:18:30.501Z,4.74
2018-12-26T03:19:36.471Z,4.91
2018-12-26T03:20:42.448Z,4.82
2018-12-26T03:21:48.457Z,4.79
2018-12-26T03:22:54.408Z,4.90
2018-12-26T03:24:00.360Z,4.92
2018-12-26T03:25:05.711Z,4.84
2018-12-26T03:26:11.580Z,4.94
2018-12-26T03:27:17.532Z,4.76
2018-12-26T03:28:23.520Z,4.79
2018-12-26T03:29:29.477Z,4.80
2018-12-26T03:30:35.393Z,4.73
2018-12-26T03:31:41.317Z,4.91
2018-12-26T03:32:47.272Z,4.70
2018-12-26T03:33:53.227Z,4.57
2018-12-26T03:34:59.228Z,4.72
2018-12-26T03:36:05.178Z,4.70
2018-12-26T03:37:10.786Z,4.67
2018-12-26T03:38:16.331Z,4.75
2018-12-26T03:39:21.935Z,4.81
2018-12-26T03:40:27.163Z,4.73
2018-12-26T03:41:32.721Z,4.73
2018-12-26T03:42:37.986Z,4.70
2018-12-26T03:43:43.221Z,4.65
2018-12-26T03:44:48.510Z,4.64
2018-12-26T03:45:53.809Z,4.71
2018-12-26T03:46:59.030Z,4.62
2018-12-26T03:48:04.305Z,4.72
2018-12-26T03:49:09.910Z,4.75
2018-12-26T03:50:15.823Z,4.78
2018-12-26T03:51:21.069Z,4.68
2018-12-26T03:52:26.675Z,4.57
2018-12-26T03:53:32.623Z,4.37
2018-12-26T03:54:38.717Z,4.40
2018-12-26T03:55:44.271Z,4.61
2018-12-26T03:56:49.868Z,4.63
2018-12-26T03:57:55.464Z,4.50
2018-12-26T03:59:01.386Z,4.57
2018-12-26T04:00:06.706Z,4.65
2018-12-26T04:01:12.656Z,4.63
2018-12-26T04:02:18.574Z,4.69
2018-12-26T04:03:24.204Z,4.77
2018-12-26T04:04:29.842Z,4.64
2018-12-26T04:05:35.802Z,4.68
2018-12-26T04:06:41.063Z,4.52
2018-12-26T04:07:46.272Z,4.56
2018-12-26T04:08:52.212Z,4.55
2018-12-26T04:09:59.317Z,4.75
2018-12-26T04:11:04.915Z,4.71
2018-12-26T04:12:10.836Z,4.71
2018-12-26T04:13:16.768Z,4.70
2018-12-26T04:14:22.002Z,4.53
2018-12-26T04:15:27.957Z,4.63
2018-12-26T04:16:33.930Z,4.49
2018-12-26T04:17:40.040Z,4.72
2018-12-26T04:18:46.296Z,4.70
2018-12-26T04:19:51.728Z,4.60
2018-12-26T04:20:57.698Z,4.50
2018-12-26T04:22:04.184Z,4.57
2018-12-26T04:23:11.907Z,4.40
2018-12-26T04:24:17.629Z,4.29
2018-12-26T04:25:22.931Z,4.29
2018-12-26T04:26:28.868Z,4.12
2018-12-26T04:27:34.802Z,4.21
2018-12-26T04:28:40.750Z,4.32
2018-12-26T04:29:46.017Z,4.38
2018-12-26T04:30:52.004Z,4.52
2018-12-26T04:31:57.932Z,4.53
2018-12-26T04:33:03.909Z,4.39
2018-12-26T04:34:09.922Z,4.42
2018-12-26T04:35:15.961Z,4.35
2018-12-26T04:36:21.954Z,4.27
2018-12-26T04:37:27.916Z,4.21
2018-12-26T04:38:33.982Z,4.35
2018-12-26T04:39:40.091Z,4.30
2018-12-26T04:40:46.340Z,4.41
2018-12-26T04:41:52.439Z,4.32
2018-12-26T04:42:58.468Z,4.47
2018-12-26T04:44:04.500Z,4.50
2018-12-26T04:45:10.471Z,4.37
2018-12-26T04:46:16.446Z,4.53
2018-12-26T04:47:22.376Z,4.40
2018-12-26T04:48:29.103Z,4.44
2018-12-26T04:49:35.094Z,4.43
2018-12-26T04:50:41.119Z,4.35
2018-12-26T04:51:47.049Z,4.34
2018-12-26T04:52:53.064Z,4.43
2018-12-26T04:53:59.006Z,4.43
2018-12-26T04:55:04.646Z,4.39
2018-12-26T04:56:10.356Z,4.48
2018-12-26T04:57:24.642Z,4.34
2018-12-26T04:58:23.192Z,4.30
2018-12-26T04:59:29.113Z,4.38
2018-12-26T05:00:35.718Z,4.22
2018-12-26T05:01:42.241Z,4.08
2018-12-26T05:02:48.281Z,4.20
2018-12-26T05:03:55.229Z,4.33
2018-12-26T05:05:01.664Z,4.39
2018-12-26T05:06:08.210Z,4.49
2018-12-26T05:07:14.127Z,4.30
2018-12-26T05:08:20.064Z,4.36
2018-12-26T05:09:26.529Z,4.14
2018-12-26T05:10:32.893Z,4.29
2018-12-26T05:11:38.784Z,4.50
2018-12-26T05:12:46.516Z,4.57
2018-12-26T05:13:53.735Z,4.44
2018-12-26T05:14:59.533Z,4.29
2018-12-26T05:16:06.184Z,4.12
2018-12-26T05:17:12.036Z,4.09
2018-12-26T05:18:18.249Z,4.11
2018-12-26T05:19:23.898Z,4.16
2018-12-26T05:20:29.878Z,4.27
2018-12-26T05:21:35.985Z,4.40
2018-12-26T05:22:42.460Z,4.35
2018-12-26T05:23:48.973Z,4.42
2018-12-26T05:24:56.868Z,4.60
2018-12-26T05:26:02.561Z,4.57
2018-12-26T05:27:07.789Z,4.63
2018-12-26T05:28:14.025Z,4.58
2018-12-26T05:29:20.023Z,4.54
2018-12-26T05:30:25.992Z,4.50
2018-12-26T05:31:33.461Z,4.39
2018-12-26T05:32:41.032Z,4.47
2018-12-26T05:33:47.209Z,4.51
2018-12-26T05:34:53.598Z,4.61
2018-12-26T05:35:59.760Z,4.54
2018-12-26T05:37:06.187Z,4.50
2018-12-26T05:38:12.128Z,4.48
2018-12-26T05:39:18.442Z,4.45
2018-12-26T05:40:26.876Z,4.52
2018-12-26T05:41:33.664Z,4.40
2018-12-26T05:42:42.352Z,4.50
2018-12-26T05:43:48.417Z,4.47
2018-12-26T05:44:54.958Z,4.53
2018-12-26T05:46:01.575Z,4.48
2018-12-26T05:47:09.078Z,4.50
2018-12-26T05:48:15.481Z,4.49
2018-12-26T05:49:21.421Z,4.63
2018-12-26T05:50:27.050Z,4.47
2018-12-26T05:51:32.980Z,4.53
2018-12-26T05:52:38.926Z,4.41
2018-12-26T05:53:45.480Z,4.43
2018-12-26T05:54:51.529Z,4.52
2018-12-26T05:55:57.478Z,4.32
2018-12-26T05:57:03.559Z,4.29
2018-12-26T05:58:09.591Z,4.40
2018-12-26T05:59:16.145Z,4.39
2018-12-26T06:00:22.427Z,4.45
2018-12-26T06:01:28.880Z,4.57
2018-12-26T06:02:34.853Z,4.60
2018-12-26T06:03:41.204Z,4.65
2018-12-26T06:04:47.464Z,4.47
2018-12-26T06:05:53.383Z,4.52
2018-12-26T06:06:59.369Z,4.40
2018-12-26T06:08:05.350Z,4.41
2018-12-26T06:09:11.354Z,4.27
2018-12-26T06:10:17.302Z,4.27
2018-12-26T06:11:23.197Z,4.37
2018-12-26T06:12:29.122Z,4.28
2018-12-26T06:13:35.038Z,4.45
2018-12-26T06:14:41.147Z,4.37
2018-12-26T06:15:47.057Z,4.33
2018-12-26T06:16:52.984Z,4.36
2018-12-26T06:17:59.108Z,4.32
2018-12-26T06:19:05.059Z,4.17
2018-12-26T06:20:11.607Z,4.21
2018-12-26T06:21:17.589Z,4.24
2018-12-26T06:22:23.701Z,4.36
2018-12-26T06:23:29.619Z,4.35
2018-12-26T06:24:36.323Z,4.46
2018-12-26T06:25:43.861Z,4.48
2018-12-26T06:26:50.347Z,4.34
2018-12-26T06:27:56.320Z,4.40
2018-12-26T06:29:02.405Z,4.42
2018-12-26T06:30:09.309Z,4.34
2018-12-26T06:31:15.263Z,4.32
2018-12-26T06:32:21.372Z,4.45
2018-12-26T06:33:27.306Z,4.55
2018-12-26T06:34:34.527Z,4.40
2018-12-26T06:35:41.023Z,4.29
2018-12-26T06:36:46.984Z,4.30
2018-12-26T06:37:53.927Z,4.35
2018-12-26T06:38:59.890Z,4.27
2018-12-26T06:40:05.734Z,4.29
2018-12-26T06:41:13.098Z,4.27
2018-12-26T06:42:19.045Z,4.28
2018-12-26T06:43:25.571Z,4.34
2018-12-26T06:44:32.702Z,4.11
2018-12-26T06:45:38.084Z,4.21
2018-12-26T06:46:44.693Z,4.28
2018-12-26T06:47:51.112Z,4.23
2018-12-26T06:48:57.084Z,4.29
2018-12-26T06:50:04.123Z,4.15
2018-12-26T06:51:11.301Z,4.06
2018-12-26T06:52:17.236Z,4.06
2018-12-26T06:53:23.856Z,4.22
2018-12-26T06:54:29.826Z,4.05
2018-12-26T06:55:36.333Z,4.10
2018-12-26T06:56:42.348Z,4.11
2018-12-26T06:57:48.867Z,4.19
2018-12-26T06:58:54.851Z,4.09
2018-12-26T07:00:02.086Z,4.11
2018-12-26T07:01:08.009Z,4.14
2018-12-26T07:02:13.932Z,4.16
2018-12-26T07:03:19.894Z,4.13
2018-12-26T07:04:26.015Z,4.12
2018-12-26T07:05:31.979Z,4.11
2018-12-26T07:06:37.936Z,3.98
2018-12-26T07:07:43.971Z,4.01
2018-12-26T07:08:49.923Z,4.02
2018-12-26T07:09:55.892Z,4.09
2018-12-26T07:11:01.843Z,3.97
2018-12-26T07:12:07.830Z,4.00
2018-12-26T07:13:13.766Z,4.00
2018-12-26T07:14:20.075Z,4.17
2018-12-26T07:15:26.613Z,4.16
2018-12-26T07:16:32.565Z,4.09
2018-12-26T07:17:39.845Z,4.03
2018-12-26T07:18:46.087Z,4.07
2018-12-26T07:19:52.653Z,4.05
2018-12-26T07:20:58.684Z,4.08
2018-12-26T07:22:04.653Z,3.92
2018-12-26T07:23:10.613Z,3.87
2018-12-26T07:24:16.536Z,3.85
2018-12-26T07:25:22.488Z,3.89
2018-12-26T07:26:28.736Z,3.97
2018-12-26T07:27:35.216Z,3.93
2018-12-26T07:28:41.708Z,3.88
2018-12-26T07:29:48.068Z,3.81
2018-12-26T07:30:54.859Z,3.78
2018-12-26T07:32:01.636Z,3.72
2018-12-26T07:33:08.929Z,3.83
2018-12-26T07:34:14.904Z,3.88
2018-12-26T07:35:21.429Z,3.88
2018-12-26T07:36:27.801Z,3.84
2018-12-26T07:37:35.584Z,3.79
2018-12-26T07:38:41.545Z,3.72
2018-12-26T07:39:47.465Z,3.84
2018-12-26T07:40:53.869Z,3.85
2018-12-26T07:42:00.684Z,3.74
2018-12-26T07:43:08.440Z,3.71
2018-12-26T07:44:14.979Z,3.63
2018-12-26T07:45:21.148Z,3.67
2018-12-26T07:46:27.047Z,3.79
2018-12-26T07:47:32.964Z,3.81
2018-12-26T07:48:38.961Z,3.60
2018-12-26T07:49:44.936Z,3.71
2018-12-26T07:50:50.934Z,3.61
2018-12-26T07:51:56.898Z,3.70
2018-12-26T07:53:02.808Z,3.63
2018-12-26T07:54:08.743Z,3.62
2018-12-26T07:55:14.406Z,3.72
2018-12-26T07:56:20.425Z,3.82
2018-12-26T07:57:26.375Z,3.83
2018-12-26T07:58:32.357Z,3.85
2018-12-26T07:59:38.301Z,3.95
2018-12-26T08:00:44.268Z,3.84
2018-12-26T08:01:49.832Z,3.90
2018-12-26T08:02:55.779Z,3.97
2018-12-26T08:04:01.770Z,3.82
2018-12-26T08:05:07.745Z,3.77
2018-12-26T08:06:13.785Z,3.75
2018-12-26T08:07:19.709Z,3.70
2018-12-26T08:08:25.672Z,3.67
2018-12-26T08:09:31.589Z,3.81
2018-12-26T08:10:37.489Z,3.87
2018-12-26T08:11:43.450Z,3.87
2018-12-26T08:12:49.360Z,3.98
2018-12-26T08:13:55.301Z,3.94
2018-12-26T08:15:10.173Z,3.83
2018-12-26T08:16:07.300Z,3.89
2018-12-26T08:17:13.254Z,3.82
2018-12-26T08:18:19.233Z,3.76
2018-12-26T08:19:25.231Z,3.79
2018-12-26T08:20:31.227Z,3.79
2018-12-26T08:21:36.860Z,3.79
2018-12-26T08:22:42.845Z,3.86
2018-12-26T08:23:48.775Z,3.94
2018-12-26T08:24:54.376Z,4.02
2018-12-26T08:26:00.282Z,3.88
2018-12-26T08:27:06.247Z,3.82
2018-12-26T08:28:12.181Z,3.74
2018-12-26T08:29:18.133Z,3.77
2018-12-26T08:30:24.054Z,3.88
2018-12-26T08:31:30.000Z,3.89
2018-12-26T08:32:35.918Z,3.79
2018-12-26T08:33:41.871Z,3.69
2018-12-26T08:34:48.558Z,3.82
2018-12-26T08:35:54.905Z,3.77
2018-12-26T08:37:00.832Z,3.66
2018-12-26T08:38:06.964Z,3.66
2018-12-26T08:39:13.445Z,3.79
2018-12-26T08:40:20.936Z,3.80
2018-12-26T08:41:27.450Z,3.87
2018-12-26T08:42:34.631Z,3.91
2018-12-26T08:43:41.059Z,3.95
2018-12-26T08:44:48.012Z,3.91
2018-12-26T08:45:53.954Z,3.97
2018-12-26T08:47:00.379Z,3.78
2018-12-26T08:48:09.016Z,3.72
2018-12-26T08:49:16.006Z,3.71
2018-12-26T08:50:22.618Z,3.80
2018-12-26T08:51:29.104Z,3.80
2018-12-26T08:52:35.564Z,3.82
2018-12-26T08:53:42.037Z,3.84
2018-12-26T08:54:49.384Z,3.91
2018-12-26T08:55:55.880Z,3.92
2018-12-26T08:57:01.856Z,3.93
2018-12-26T08:58:08.123Z,3.88
2018-12-26T08:59:15.144Z,3.79
2018-12-26T09:00:22.768Z,3.87
2018-12-26T09:01:29.918Z,3.95
2018-12-26T09:02:37.809Z,3.96
2018-12-26T09:03:44.461Z,3.96
2018-12-26T09:04:53.072Z,3.91
2018-12-26T09:06:00.223Z,3.91
2018-12-26T09:07:06.918Z,3.86
2018-12-26T09:08:13.379Z,3.73
2018-12-26T09:09:19.448Z,3.75
2018-12-26T09:10:27.991Z,3.77
2018-12-26T09:11:32.301Z,3.81
2018-12-26T09:12:38.903Z,3.94
2018-12-26T09:13:44.995Z,4.01
2018-12-26T09:14:51.213Z,3.97
2018-12-26T09:15:57.315Z,3.86
2018-12-26T09:17:03.446Z,3.84
2018-12-26T09:18:09.683Z,3.96
2018-12-26T09:19:16.178Z,3.89
2018-12-26T09:20:22.512Z,3.90
2018-12-26T09:21:28.867Z,3.86
2018-12-26T09:22:35.075Z,3.84
2018-12-26T09:23:42.645Z,3.78
2018-12-26T09:24:48.971Z,3.81
2018-12-26T09:25:54.575Z,3.79
2018-12-26T09:27:02.547Z,3.75
2018-12-26T09:28:08.593Z,3.73
2018-12-26T09:29:15.028Z,3.70
2018-12-26T09:30:20.894Z,3.77
2018-12-26T09:31:26.860Z,3.80
2018-12-26T09:32:33.584Z,3.74
2018-12-26T09:33:40.783Z,3.89
2018-12-26T09:34:47.759Z,3.88
2018-12-26T09:35:53.738Z,3.80
2018-12-26T09:36:59.734Z,3.79
2018-12-26T09:38:05.696Z,3.89
2018-12-26T09:39:11.709Z,3.66
2018-12-26T09:40:17.687Z,3.68
2018-12-26T09:41:23.724Z,3.81
2018-12-26T09:42:29.702Z,3.84
2018-12-26T09:43:35.659Z,3.79
2018-12-26T09:44:41.702Z,3.68
2018-12-26T09:45:47.654Z,3.70
2018-12-26T09:46:53.624Z,3.86
2018-12-26T09:47:59.620Z,3.90
2018-12-26T09:49:05.614Z,3.86
2018-12-26T09:50:11.597Z,3.70
2018-12-26T09:51:17.208Z,3.73
2018-12-26T09:52:23.176Z,3.70
2018-12-26T09:53:29.067Z,3.77
2018-12-26T09:54:35.049Z,3.78
2018-12-26T09:55:41.035Z,3.81
2018-12-26T09:56:47.004Z,3.72
2018-12-26T09:57:53.078Z,3.57
2018-12-26T09:58:59.027Z,3.74
2018-12-26T10:00:04.329Z,3.74
2018-12-26T10:01:10.266Z,3.82
2018-12-26T10:02:16.218Z,3.84
2018-12-26T10:03:22.242Z,3.77
2018-12-26T10:04:28.214Z,3.88
2018-12-26T10:05:34.331Z,3.92
2018-12-26T10:06:40.287Z,3.82
2018-12-26T10:07:46.248Z,3.85
2018-12-26T10:08:52.215Z,3.93
2018-12-26T10:09:58.181Z,3.89
2018-12-26T10:11:04.173Z,3.79
2018-12-26T10:12:10.151Z,3.73
2018-12-26T10:13:16.162Z,3.72
2018-12-26T10:14:22.171Z,3.84
2018-12-26T10:15:28.168Z,3.65
2018-12-26T10:16:34.120Z,3.55
2018-12-26T10:17:40.072Z,3.57
2018-12-26T10:18:46.024Z,3.55
2018-12-26T10:19:52.088Z,3.62
2018-12-26T10:20:58.227Z,3.73
2018-12-26T10:22:04.189Z,3.70
2018-12-26T10:23:10.161Z,3.89
2018-12-26T10:24:16.153Z,3.86
2018-12-26T10:25:22.156Z,3.86
2018-12-26T10:26:28.216Z,3.91
2018-12-26T10:27:34.188Z,3.95
2018-12-26T10:28:40.166Z,3.81
2018-12-26T10:29:46.175Z,3.76
2018-12-26T10:30:52.150Z,3.74
2018-12-26T10:31:58.116Z,3.83
2018-12-26T10:33:04.736Z,3.81
2018-12-26T10:34:10.775Z,3.65
2018-12-26T10:35:16.769Z,3.85
2018-12-26T10:36:22.739Z,3.83
2018-12-26T10:37:28.712Z,3.92
2018-12-26T10:38:34.653Z,3.83
2018-12-26T10:39:40.708Z,3.81
2018-12-26T10:40:46.704Z,3.79
2018-12-26T10:41:52.663Z,3.79
2018-12-26T10:42:58.704Z,3.78
2018-12-26T10:44:04.281Z,3.81
2018-12-26T10:45:10.208Z,3.66
2018-12-26T10:46:16.214Z,3.48
2018-12-26T10:47:22.242Z,3.53
2018-12-26T10:48:28.688Z,3.49
2018-12-26T10:49:34.593Z,3.55
2018-12-26T10:50:40.525Z,3.55
2018-12-26T10:51:46.552Z,3.64
2018-12-26T10:52:52.546Z,3.66
2018-12-26T10:53:58.481Z,3.68
2018-12-26T10:55:03.770Z,3.68
2018-12-26T10:56:09.673Z,3.67
2018-12-26T10:57:15.641Z,3.57
2018-12-26T10:58:20.888Z,3.54
2018-12-26T10:59:26.817Z,3.66
2018-12-26T11:00:32.771Z,3.74
2018-12-26T11:01:38.754Z,3.65
2018-12-26T11:02:44.758Z,3.53
2018-12-26T11:03:50.733Z,3.62
2018-12-26T11:04:56.433Z,3.45
2018-12-26T11:06:02.335Z,3.53
2018-12-26T11:07:08.332Z,3.54
2018-12-26T11:08:14.320Z,3.49
2018-12-26T11:09:20.289Z,3.47
2018-12-26T11:10:26.226Z,3.57
2018-12-26T11:11:32.202Z,3.51
2018-12-26T11:12:38.173Z,3.55
2018-12-26T11:13:44.133Z,3.68
2018-12-26T11:14:50.061Z,3.59
2018-12-26T11:15:55.665Z,3.70
2018-12-26T11:17:01.606Z,3.71
2018-12-26T11:18:07.644Z,3.84
2018-12-26T11:19:13.266Z,3.65
2018-12-26T11:20:19.190Z,3.66
2018-12-26T11:21:25.249Z,3.72
2018-12-26T11:22:31.206Z,3.78
2018-12-26T11:23:37.189Z,3.73
2018-12-26T11:24:43.176Z,3.76
2018-12-26T11:25:49.136Z,3.69
2018-12-26T11:26:55.066Z,3.66
2018-12-26T11:28:01.074Z,3.56
2018-12-26T11:29:07.127Z,3.54
2018-12-26T11:30:12.798Z,3.71
2018-12-26T11:31:18.757Z,3.52
2018-12-26T11:32:24.811Z,3.65
2018-12-26T11:33:30.810Z,3.65
2018-12-26T11:34:36.782Z,3.73
2018-12-26T11:35:43.631Z,3.82
2018-12-26T11:36:48.908Z,3.79
2018-12-26T11:37:54.143Z,3.82
2018-12-26T11:39:00.147Z,3.91
2018-12-26T11:40:05.486Z,3.86
2018-12-26T11:41:11.257Z,3.84
2018-12-26T11:42:16.875Z,3.71
2018-12-26T11:43:22.858Z,3.71
2018-12-26T11:44:28.786Z,3.69
2018-12-26T11:45:34.775Z,3.64
2018-12-26T11:46:40.797Z,3.63
2018-12-26T11:47:46.847Z,3.68
2018-12-26T11:48:52.833Z,3.70
2018-12-26T11:49:58.769Z,3.66
2018-12-26T11:51:04.414Z,3.75
2018-12-26T11:52:10.483Z,3.69
2018-12-26T11:53:17.681Z,3.72
2018-12-26T11:54:23.726Z,3.66
2018-12-26T11:55:29.740Z,3.60
2018-12-26T11:56:35.740Z,3.79
2018-12-26T11:57:41.669Z,3.72
2018-12-26T11:58:47.648Z,3.74
2018-12-26T11:59:53.661Z,3.77
2018-12-26T12:00:59.657Z,3.92
2018-12-26T12:02:05.278Z,4.02
2018-12-26T12:03:11.256Z,4.03
2018-12-26T12:04:16.855Z,4.05
2018-12-26T12:05:22.515Z,3.86
2018-12-26T12:06:28.456Z,3.83
2018-12-26T12:07:34.449Z,3.93
2018-12-26T12:08:39.798Z,3.87
2018-12-26T12:09:45.492Z,3.85
2018-12-26T12:10:51.509Z,3.81
2018-12-26T12:11:57.481Z,3.93
2018-12-26T12:13:03.480Z,3.89
2018-12-26T12:14:09.110Z,3.97
2018-12-26T12:15:14.729Z,3.99
2018-12-26T12:16:20.673Z,4.01
2018-12-26T12:17:26.681Z,4.08
2018-12-26T12:18:32.726Z,4.09
2018-12-26T12:19:38.672Z,4.10
2018-12-26T12:20:44.641Z,4.13
2018-12-26T12:21:50.341Z,3.93
2018-12-26T12:22:55.584Z,4.01
2018-12-26T12:24:01.584Z,3.87
2018-12-26T12:25:07.231Z,3.99
2018-12-26T12:26:13.215Z,4.07
2018-12-26T12:27:19.342Z,3.94
2018-12-26T12:28:25.451Z,3.99
2018-12-26T12:29:35.888Z,3.98
2018-12-26T12:30:37.458Z,4.10
2018-12-26T12:31:43.458Z,4.23
2018-12-26T12:32:49.474Z,4.25
2018-12-26T12:33:54.843Z,4.30
2018-12-26T12:35:00.477Z,4.20
2018-12-26T12:36:06.126Z,4.26
2018-12-26T12:37:12.104Z,4.32
2018-12-26T12:38:17.718Z,4.18
2018-12-26T12:39:23.460Z,4.20
2018-12-26T12:40:29.497Z,4.06
2018-12-26T12:41:35.480Z,4.15
2018-12-26T12:42:41.688Z,4.06
2018-12-26T12:43:47.707Z,4.10
2018-12-26T12:44:53.061Z,4.17
2018-12-26T12:45:58.342Z,4.31
2018-12-26T12:47:04.004Z,4.24
2018-12-26T12:48:10.099Z,4.26
2018-12-26T12:49:15.396Z,4.25
2018-12-26T12:50:20.998Z,4.28
2018-12-26T12:51:26.970Z,4.25
2018-12-26T12:52:32.957Z,4.28
2018-12-26T12:53:38.898Z,4.36
2018-12-26T12:54:44.190Z,4.36
2018-12-26T12:55:49.603Z,4.36
2018-12-26T12:56:55.610Z,4.44
2018-12-26T12:58:01.209Z,4.50
2018-12-26T12:59:06.790Z,4.53
2018-12-26T13:00:12.430Z,4.56
2018-12-26T13:01:18.064Z,4.36
2018-12-26T13:02:23.421Z,4.31
2018-12-26T13:03:29.056Z,4.31
2018-12-26T13:04:34.365Z,4.25
2018-12-26T13:05:40.022Z,4.33
2018-12-26T13:06:46.490Z,4.43
2018-12-26T13:07:53.260Z,4.46
2018-12-26T13:08:59.283Z,4.31
2018-12-26T13:10:04.784Z,4.30
2018-12-26T13:11:10.787Z,4.38
2018-12-26T13:12:16.797Z,4.32
2018-12-26T13:13:22.790Z,4.34
2018-12-26T13:14:28.874Z,4.43
2018-12-26T13:15:34.907Z,4.35
2018-12-26T13:16:40.978Z,4.49
2018-12-26T13:17:46.920Z,4.45
2018-12-26T13:18:52.913Z,4.57
2018-12-26T13:19:58.903Z,4.46
2018-12-26T13:21:04.877Z,4.39
2018-12-26T13:22:10.882Z,4.42
2018-12-26T13:23:16.904Z,4.54
2018-12-26T13:24:22.933Z,4.56
2018-12-26T13:25:28.940Z,4.55
2018-12-26T13:26:34.934Z,4.60
2018-12-26T13:27:40.926Z,4.50
2018-12-26T13:28:47.923Z,4.57
2018-12-26T13:29:58.672Z,4.49
2018-12-26T13:31:05.957Z,4.52
2018-12-26T13:32:13.036Z,4.58
2018-12-26T13:33:19.757Z,4.83
2018-12-26T13:34:26.959Z,4.85
2018-12-26T13:35:33.889Z,4.87
2018-12-26T13:36:40.986Z,4.85
2018-12-26T13:37:48.199Z,4.77
2018-12-26T13:38:55.527Z,4.69
2018-12-26T13:40:02.124Z,4.74
2018-12-26T13:41:08.131Z,4.78
2018-12-26T13:42:14.113Z,4.71
2018-12-26T13:43:20.058Z,4.81
2018-12-26T13:44:26.087Z,4.77
2018-12-26T13:45:32.078Z,4.87
2018-12-26T13:46:38.076Z,4.95
2018-12-26T13:47:44.301Z,4.95
2018-12-26T13:48:50.294Z,4.84
2018-12-26T13:49:56.321Z,4.91
2018-12-26T13:51:02.280Z,4.92
2018-12-26T13:52:08.300Z,4.91
2018-12-26T13:53:13.898Z,4.72
2018-12-26T13:54:19.823Z,4.79
2018-12-26T13:55:25.856Z,4.69
2018-12-26T13:56:31.893Z,4.63
2018-12-26T13:57:38.130Z,4.67
2018-12-26T13:58:44.546Z,4.79
2018-12-26T13:59:51.823Z,4.86
2018-12-26T14:00:58.190Z,5.01
2018-12-26T14:02:04.205Z,4.90
2018-12-26T14:03:10.169Z,4.98
2018-12-26T14:04:16.146Z,4.90
2018-12-26T14:05:22.166Z,4.83
2018-12-26T14:06:27.826Z,4.86
2018-12-26T14:07:33.803Z,4.94
2018-12-26T14:08:39.858Z,5.00
2018-12-26T14:09:45.910Z,4.96
2018-12-26T14:10:52.411Z,4.93
2018-12-26T14:11:58.420Z,4.91
2018-12-26T14:13:04.409Z,4.95
2018-12-26T14:14:10.389Z,4.99
2018-12-26T14:15:16.424Z,5.01
2018-12-26T14:16:22.672Z,4.99
2018-12-26T14:17:29.258Z,4.93
2018-12-26T14:18:34.860Z,4.84
2018-12-26T14:19:40.821Z,4.86
2018-12-26T14:20:46.854Z,4.83
2018-12-26T14:21:52.808Z,4.83
2018-12-26T14:22:58.850Z,4.83
2018-12-26T14:24:04.790Z,4.85
2018-12-26T14:25:11.581Z,4.76
2018-12-26T14:26:17.905Z,4.92
2018-12-26T14:27:29.222Z,4.91
2018-12-26T14:28:29.864Z,4.96
2018-12-26T14:29:35.790Z,5.00
2018-12-26T14:30:41.796Z,4.83
2018-12-26T14:31:47.745Z,4.66
2018-12-26T14:32:53.731Z,4.75
2018-12-26T14:33:59.710Z,4.83
2018-12-26T14:35:05.041Z,4.66
2018-12-26T14:36:10.997Z,4.76
2018-12-26T14:37:17.006Z,4.66
2018-12-26T14:38:22.966Z,4.77
2018-12-26T14:39:28.908Z,4.77